INFORMACIÓN METAR y TAF
METAR FOR HESH
ADDS - METARS form results

(0256 UTC 27 October 2021)
Data provider http://aviationweather.gov/metar/data/
 
METAR text: HESH 270200Z 36010KT CAVOK 24/15 Q1013 NOSIG
Conditions at: HESH (SHARM EL SHEIKHI, EG) observed 0200 UTC 27 October 2021
Temperature: 24.0°C (75°F)
Dewpoint: 15.0°C (59°F) [RH = 57%]
Pressure (altimeter): 29.91 inches Hg (1013.0 mb)
Winds: from the N (360 degrees) at 12 MPH (10 knots; 5.1 m/s)
Visibility: 6 or more miles (10+ km)
Ceiling: ceiling and visibility are OK
Clouds: unknown
Weather: no significant weather observed at this time

Forecast for: HESH (SHARM EL SHEIKHI, EG)
Text: TAF HESH 262300Z 2700/2806 34012KT CAVOK
Forecast period: 0000 UTC 27 October 2021 to 0600 UTC 28 October 2021
Forecast type: FROM: standard forecast or significant change
Winds: from the NNW (340 degrees) at 14 MPH (12 knots; 6.2 m/s)
Visibility: 6 or more miles (10+ km)
Ceiling: unknown
Clouds: missing
Weather: NSW  (no significant weather)

 MAPA DE AEROPUERTO

 INFORMACIÓN DE PISTA